sensor_id;sensor_type;location;lat;lon;timestamp;P1;durP1;ratioP1;P2;durP2;ratioP2
37931;SDS011;23758;42.640;23.302;2023-04-24T00:02:22;3.10;;;2.90;;
37931;SDS011;23758;42.640;23.302;2023-04-24T00:04:48;2.95;;;2.75;;
37931;SDS011;23758;42.640;23.302;2023-04-24T00:07:14;3.10;;;2.90;;
37931;SDS011;23758;42.640;23.302;2023-04-24T00:09:41;2.97;;;2.78;;
37931;SDS011;23758;42.640;23.302;2023-04-24T00:12:08;3.10;;;2.90;;
37931;SDS011;23758;42.640;23.302;2023-04-24T00:14:34;3.20;;;3.00;;
37931;SDS011;23758;42.640;23.302;2023-04-24T00:17:00;2.90;;;2.70;;
37931;SDS011;23758;42.640;23.302;2023-04-24T00:19:27;2.90;;;2.70;;
37931;SDS011;23758;42.640;23.302;2023-04-24T00:21:53;3.28;;;3.08;;
37931;SDS011;23758;42.640;23.302;2023-04-24T00:24:19;3.10;;;2.90;;
37931;SDS011;23758;42.640;23.302;2023-04-24T00:26:45;3.03;;;2.83;;
37931;SDS011;23758;42.640;23.302;2023-04-24T00:29:10;2.92;;;2.72;;
37931;SDS011;23758;42.640;23.302;2023-04-24T00:31:36;3.00;;;2.80;;
37931;SDS011;23758;42.640;23.302;2023-04-24T00:34:02;3.00;;;2.80;;
37931;SDS011;23758;42.640;23.302;2023-04-24T00:36:28;3.08;;;2.88;;
37931;SDS011;23758;42.640;23.302;2023-04-24T00:38:54;11.25;;;3.05;;
37931;SDS011;23758;42.640;23.302;2023-04-24T00:41:20;3.25;;;3.05;;
37931;SDS011;23758;42.640;23.302;2023-04-24T00:43:46;3.13;;;2.92;;
37931;SDS011;23758;42.640;23.302;2023-04-24T00:46:12;2.90;;;2.70;;
37931;SDS011;23758;42.640;23.302;2023-04-24T00:48:41;2.83;;;2.63;;
37931;SDS011;23758;42.640;23.302;2023-04-24T00:51:06;2.70;;;2.50;;
37931;SDS011;23758;42.640;23.302;2023-04-24T00:53:32;2.85;;;2.65;;
37931;SDS011;23758;42.640;23.302;2023-04-24T00:55:57;2.90;;;2.70;;
37931;SDS011;23758;42.640;23.302;2023-04-24T00:58:23;3.00;;;2.80;;
37931;SDS011;23758;42.640;23.302;2023-04-24T01:00:49;2.88;;;2.67;;
37931;SDS011;23758;42.640;23.302;2023-04-24T01:03:18;2.80;;;2.60;;
37931;SDS011;23758;42.640;23.302;2023-04-24T01:05:47;2.90;;;2.70;;
37931;SDS011;23758;42.640;23.302;2023-04-24T01:08:14;3.72;;;2.95;;
37931;SDS011;23758;42.640;23.302;2023-04-24T01:10:40;2.90;;;2.70;;
37931;SDS011;23758;42.640;23.302;2023-04-24T01:13:07;2.95;;;2.75;;
37931;SDS011;23758;42.640;23.302;2023-04-24T01:15:33;3.30;;;3.10;;
37931;SDS011;23758;42.640;23.302;2023-04-24T01:17:58;3.20;;;2.90;;
37931;SDS011;23758;42.640;23.302;2023-04-24T01:20:24;3.10;;;2.90;;
37931;SDS011;23758;42.640;23.302;2023-04-24T01:22:51;2.92;;;2.72;;
37931;SDS011;23758;42.640;23.302;2023-04-24T01:25:17;2.95;;;2.75;;
37931;SDS011;23758;42.640;23.302;2023-04-24T01:27:43;3.63;;;3.33;;
37931;SDS011;23758;42.640;23.302;2023-04-24T01:30:09;3.38;;;3.15;;
37931;SDS011;23758;42.640;23.302;2023-04-24T01:32:35;3.10;;;2.90;;
37931;SDS011;23758;42.640;23.302;2023-04-24T01:35:01;3.00;;;2.80;;
37931;SDS011;23758;42.640;23.302;2023-04-24T01:37:27;3.13;;;2.92;;
37931;SDS011;23758;42.640;23.302;2023-04-24T01:39:53;3.35;;;3.10;;
37931;SDS011;23758;42.640;23.302;2023-04-24T01:42:18;2.90;;;2.70;;
37931;SDS011;23758;42.640;23.302;2023-04-24T01:44:44;3.00;;;2.80;;
37931;SDS011;23758;42.640;23.302;2023-04-24T01:47:10;3.30;;;3.10;;
37931;SDS011;23758;42.640;23.302;2023-04-24T01:49:37;3.40;;;3.20;;
37931;SDS011;23758;42.640;23.302;2023-04-24T01:52:03;3.55;;;3.28;;
37931;SDS011;23758;42.640;23.302;2023-04-24T01:54:29;3.55;;;3.35;;
37931;SDS011;23758;42.640;23.302;2023-04-24T01:56:54;16.88;;;4.63;;
37931;SDS011;23758;42.640;23.302;2023-04-24T01:59:20;4.32;;;4.03;;
37931;SDS011;23758;42.640;23.302;2023-04-24T02:01:46;5.45;;;4.57;;
37931;SDS011;23758;42.640;23.302;2023-04-24T02:04:11;4.45;;;4.15;;
37931;SDS011;23758;42.640;23.302;2023-04-24T02:06:36;4.82;;;4.53;;
37931;SDS011;23758;42.640;23.302;2023-04-24T02:09:02;4.05;;;3.75;;
37931;SDS011;23758;42.640;23.302;2023-04-24T02:11:28;3.70;;;3.50;;
37931;SDS011;23758;42.640;23.302;2023-04-24T02:13:54;3.65;;;3.45;;
37931;SDS011;23758;42.640;23.302;2023-04-24T02:16:19;3.53;;;3.33;;
37931;SDS011;23758;42.640;23.302;2023-04-24T02:18:45;3.83;;;3.60;;
37931;SDS011;23758;42.640;23.302;2023-04-24T02:21:10;4.88;;;4.47;;
37931;SDS011;23758;42.640;23.302;2023-04-24T02:23:36;4.07;;;3.78;;
37931;SDS011;23758;42.640;23.302;2023-04-24T02:26:01;3.38;;;3.17;;
37931;SDS011;23758;42.640;23.302;2023-04-24T02:28:27;3.42;;;3.22;;
37931;SDS011;23758;42.640;23.302;2023-04-24T02:30:52;4.30;;;4.00;;
37931;SDS011;23758;42.640;23.302;2023-04-24T02:33:18;3.60;;;3.40;;
37931;SDS011;23758;42.640;23.302;2023-04-24T02:35:43;3.22;;;3.03;;
37931;SDS011;23758;42.640;23.302;2023-04-24T02:38:09;3.40;;;3.20;;
37931;SDS011;23758;42.640;23.302;2023-04-24T02:40:34;3.78;;;3.58;;
37931;SDS011;23758;42.640;23.302;2023-04-24T02:43:00;5.40;;;4.82;;
37931;SDS011;23758;42.640;23.302;2023-04-24T02:45:25;4.00;;;3.70;;
37931;SDS011;23758;42.640;23.302;2023-04-24T02:47:51;3.97;;;3.67;;
37931;SDS011;23758;42.640;23.302;2023-04-24T02:50:16;3.85;;;3.55;;
37931;SDS011;23758;42.640;23.302;2023-04-24T02:52:42;3.45;;;3.25;;
37931;SDS011;23758;42.640;23.302;2023-04-24T02:55:07;3.40;;;3.20;;
37931;SDS011;23758;42.640;23.302;2023-04-24T02:57:33;3.17;;;2.97;;
37931;SDS011;23758;42.640;23.302;2023-04-24T02:59:58;3.20;;;3.00;;
37931;SDS011;23758;42.640;23.302;2023-04-24T03:02:24;3.20;;;3.00;;
37931;SDS011;23758;42.640;23.302;2023-04-24T03:04:50;3.90;;;3.58;;
37931;SDS011;23758;42.640;23.302;2023-04-24T03:07:15;3.25;;;3.05;;
37931;SDS011;23758;42.640;23.302;2023-04-24T03:09:41;3.30;;;3.10;;
37931;SDS011;23758;42.640;23.302;2023-04-24T03:12:06;3.38;;;3.17;;
37931;SDS011;23758;42.640;23.302;2023-04-24T03:14:32;3.10;;;2.90;;
37931;SDS011;23758;42.640;23.302;2023-04-24T03:16:58;3.58;;;3.28;;
37931;SDS011;23758;42.640;23.302;2023-04-24T03:19:23;3.33;;;3.13;;
37931;SDS011;23758;42.640;23.302;2023-04-24T03:21:49;3.97;;;3.58;;
37931;SDS011;23758;42.640;23.302;2023-04-24T03:24:14;3.80;;;3.50;;
37931;SDS011;23758;42.640;23.302;2023-04-24T03:26:40;3.30;;;3.10;;
37931;SDS011;23758;42.640;23.302;2023-04-24T03:29:05;3.60;;;3.40;;
37931;SDS011;23758;42.640;23.302;2023-04-24T03:31:31;3.38;;;3.17;;
37931;SDS011;23758;42.640;23.302;2023-04-24T03:33:56;3.65;;;3.35;;
37931;SDS011;23758;42.640;23.302;2023-04-24T03:36:22;3.85;;;3.55;;
37931;SDS011;23758;42.640;23.302;2023-04-24T03:38:47;3.65;;;3.45;;
37931;SDS011;23758;42.640;23.302;2023-04-24T03:41:13;3.30;;;3.10;;
37931;SDS011;23758;42.640;23.302;2023-04-24T03:43:38;3.20;;;3.00;;
37931;SDS011;23758;42.640;23.302;2023-04-24T03:46:04;3.50;;;3.30;;
37931;SDS011;23758;42.640;23.302;2023-04-24T03:48:30;3.40;;;3.10;;
37931;SDS011;23758;42.640;23.302;2023-04-24T03:50:55;3.40;;;3.20;;
37931;SDS011;23758;42.640;23.302;2023-04-24T03:53:21;3.35;;;3.15;;
37931;SDS011;23758;42.640;23.302;2023-04-24T03:55:46;3.20;;;3.00;;
37931;SDS011;23758;42.640;23.302;2023-04-24T03:58:12;3.42;;;3.20;;
37931;SDS011;23758;42.640;23.302;2023-04-24T04:00:39;3.40;;;3.20;;
37931;SDS011;23758;42.640;23.302;2023-04-24T04:03:05;3.40;;;3.20;;
37931;SDS011;23758;42.640;23.302;2023-04-24T04:05:31;3.28;;;3.08;;
37931;SDS011;23758;42.640;23.302;2023-04-24T04:07:56;3.00;;;2.80;;
37931;SDS011;23758;42.640;23.302;2023-04-24T04:10:22;3.72;;;3.42;;
37931;SDS011;23758;42.640;23.302;2023-04-24T04:12:47;2.83;;;2.63;;
37931;SDS011;23758;42.640;23.302;2023-04-24T04:15:13;3.00;;;2.80;;
37931;SDS011;23758;42.640;23.302;2023-04-24T04:17:39;3.00;;;2.80;;
37931;SDS011;23758;42.640;23.302;2023-04-24T04:20:04;3.10;;;2.90;;
37931;SDS011;23758;42.640;23.302;2023-04-24T04:22:36;3.10;;;2.90;;
37931;SDS011;23758;42.640;23.302;2023-04-24T04:25:03;2.70;;;2.50;;
37931;SDS011;23758;42.640;23.302;2023-04-24T04:27:29;2.97;;;2.78;;
37931;SDS011;23758;42.640;23.302;2023-04-24T04:29:57;2.67;;;2.47;;
37931;SDS011;23758;42.640;23.302;2023-04-24T04:32:33;2.92;;;2.72;;
37931;SDS011;23758;42.640;23.302;2023-04-24T04:34:59;3.50;;;3.20;;
37931;SDS011;23758;42.640;23.302;2023-04-24T04:37:28;2.70;;;2.50;;
37931;SDS011;23758;42.640;23.302;2023-04-24T04:39:54;2.67;;;2.47;;
37931;SDS011;23758;42.640;23.302;2023-04-24T04:42:20;2.50;;;2.40;;
37931;SDS011;23758;42.640;23.302;2023-04-24T04:44:45;2.40;;;2.30;;
37931;SDS011;23758;42.640;23.302;2023-04-24T04:47:11;2.55;;;2.42;;
37931;SDS011;23758;42.640;23.302;2023-04-24T04:49:37;2.67;;;2.47;;
37931;SDS011;23758;42.640;23.302;2023-04-24T04:52:03;2.60;;;2.40;;
37931;SDS011;23758;42.640;23.302;2023-04-24T04:54:29;2.85;;;2.65;;
37931;SDS011;23758;42.640;23.302;2023-04-24T04:56:54;2.70;;;2.50;;
37931;SDS011;23758;42.640;23.302;2023-04-24T04:59:20;2.50;;;2.40;;
37931;SDS011;23758;42.640;23.302;2023-04-24T05:01:46;2.45;;;2.35;;
37931;SDS011;23758;42.640;23.302;2023-04-24T05:04:11;2.55;;;2.38;;
37931;SDS011;23758;42.640;23.302;2023-04-24T05:06:36;4.60;;;3.30;;
37931;SDS011;23758;42.640;23.302;2023-04-24T05:09:02;3.40;;;3.20;;
37931;SDS011;23758;42.640;23.302;2023-04-24T05:11:28;2.70;;;2.50;;
37931;SDS011;23758;42.640;23.302;2023-04-24T05:13:54;2.70;;;2.50;;
37931;SDS011;23758;42.640;23.302;2023-04-24T05:16:20;2.42;;;2.33;;
37931;SDS011;23758;42.640;23.302;2023-04-24T05:18:45;2.83;;;2.63;;
37931;SDS011;23758;42.640;23.302;2023-04-24T05:21:11;2.33;;;2.22;;
37931;SDS011;23758;42.640;23.302;2023-04-24T05:23:36;2.80;;;2.60;;
37931;SDS011;23758;42.640;23.302;2023-04-24T05:26:02;2.65;;;2.47;;
37931;SDS011;23758;42.640;23.302;2023-04-24T05:28:27;2.70;;;2.50;;
37931;SDS011;23758;42.640;23.302;2023-04-24T05:30:53;2.60;;;2.40;;
37931;SDS011;23758;42.640;23.302;2023-04-24T05:33:20;3.03;;;2.83;;
37931;SDS011;23758;42.640;23.302;2023-04-24T05:35:47;2.30;;;2.20;;
37931;SDS011;23758;42.640;23.302;2023-04-24T05:38:12;2.35;;;2.25;;
37931;SDS011;23758;42.640;23.302;2023-04-24T05:40:38;2.70;;;2.50;;
37931;SDS011;23758;42.640;23.302;2023-04-24T05:43:04;2.70;;;2.50;;
37931;SDS011;23758;42.640;23.302;2023-04-24T05:45:30;2.58;;;2.40;;
37931;SDS011;23758;42.640;23.302;2023-04-24T05:47:56;3.20;;;2.92;;
37931;SDS011;23758;42.640;23.302;2023-04-24T05:50:22;2.83;;;2.63;;
37931;SDS011;23758;42.640;23.302;2023-04-24T05:52:47;2.20;;;2.10;;
37931;SDS011;23758;42.640;23.302;2023-04-24T05:55:13;2.45;;;2.33;;
37931;SDS011;23758;42.640;23.302;2023-04-24T05:57:38;2.80;;;2.60;;
37931;SDS011;23758;42.640;23.302;2023-04-24T06:00:04;2.15;;;2.05;;
37931;SDS011;23758;42.640;23.302;2023-04-24T06:02:30;2.63;;;2.20;;
37931;SDS011;23758;42.640;23.302;2023-04-24T06:04:58;2.22;;;2.13;;
37931;SDS011;23758;42.640;23.302;2023-04-24T06:07:24;2.85;;;2.65;;
37931;SDS011;23758;42.640;23.302;2023-04-24T06:09:51;2.20;;;2.10;;
37931;SDS011;23758;42.640;23.302;2023-04-24T06:12:17;2.30;;;2.20;;
37931;SDS011;23758;42.640;23.302;2023-04-24T06:14:42;2.47;;;2.35;;
37931;SDS011;23758;42.640;23.302;2023-04-24T06:17:08;2.60;;;2.45;;
37931;SDS011;23758;42.640;23.302;2023-04-24T06:19:34;2.40;;;2.30;;
37931;SDS011;23758;42.640;23.302;2023-04-24T06:21:59;2.33;;;2.22;;
37931;SDS011;23758;42.640;23.302;2023-04-24T06:24:28;2.50;;;2.35;;
37931;SDS011;23758;42.640;23.302;2023-04-24T06:26:53;2.65;;;2.45;;
37931;SDS011;23758;42.640;23.302;2023-04-24T06:29:19;2.30;;;2.20;;
37931;SDS011;23758;42.640;23.302;2023-04-24T06:31:44;2.60;;;2.40;;
37931;SDS011;23758;42.640;23.302;2023-04-24T06:34:10;2.55;;;2.35;;
37931;SDS011;23758;42.640;23.302;2023-04-24T06:36:35;2.60;;;2.40;;
37931;SDS011;23758;42.640;23.302;2023-04-24T06:39:01;2.97;;;2.78;;
37931;SDS011;23758;42.640;23.302;2023-04-24T06:41:27;3.15;;;2.40;;
37931;SDS011;23758;42.640;23.302;2023-04-24T06:43:54;2.30;;;2.20;;
37931;SDS011;23758;42.640;23.302;2023-04-24T06:46:19;2.10;;;2.00;;
37931;SDS011;23758;42.640;23.302;2023-04-24T06:48:47;2.55;;;2.38;;
37931;SDS011;23758;42.640;23.302;2023-04-24T06:51:12;2.95;;;2.75;;
37931;SDS011;23758;42.640;23.302;2023-04-24T06:53:38;2.72;;;2.53;;
37931;SDS011;23758;42.640;23.302;2023-04-24T06:56:03;2.40;;;2.30;;
37931;SDS011;23758;42.640;23.302;2023-04-24T06:58:30;2.15;;;2.05;;
37931;SDS011;23758;42.640;23.302;2023-04-24T07:00:55;2.40;;;2.28;;
37931;SDS011;23758;42.640;23.302;2023-04-24T07:03:21;2.42;;;2.28;;
37931;SDS011;23758;42.640;23.302;2023-04-24T07:05:46;2.33;;;2.22;;
37931;SDS011;23758;42.640;23.302;2023-04-24T07:08:13;2.20;;;2.10;;
37931;SDS011;23758;42.640;23.302;2023-04-24T07:10:38;2.28;;;2.17;;
37931;SDS011;23758;42.640;23.302;2023-04-24T07:13:04;2.30;;;2.20;;
37931;SDS011;23758;42.640;23.302;2023-04-24T07:15:29;2.70;;;2.50;;
37931;SDS011;23758;42.640;23.302;2023-04-24T07:17:55;2.72;;;2.53;;
37931;SDS011;23758;42.640;23.302;2023-04-24T07:20:21;2.60;;;2.40;;
37931;SDS011;23758;42.640;23.302;2023-04-24T07:22:46;2.58;;;2.40;;
37931;SDS011;23758;42.640;23.302;2023-04-24T07:25:13;2.58;;;2.38;;
37931;SDS011;23758;42.640;23.302;2023-04-24T07:27:38;2.30;;;2.20;;
37931;SDS011;23758;42.640;23.302;2023-04-24T07:30:04;2.33;;;2.22;;
37931;SDS011;23758;42.640;23.302;2023-04-24T07:32:30;2.35;;;2.20;;
37931;SDS011;23758;42.640;23.302;2023-04-24T07:34:56;2.90;;;2.70;;
37931;SDS011;23758;42.640;23.302;2023-04-24T07:37:22;2.20;;;2.10;;
37931;SDS011;23758;42.640;23.302;2023-04-24T07:39:47;2.38;;;2.28;;
37931;SDS011;23758;42.640;23.302;2023-04-24T07:42:13;2.60;;;2.40;;
37931;SDS011;23758;42.640;23.302;2023-04-24T07:44:38;2.40;;;2.30;;
37931;SDS011;23758;42.640;23.302;2023-04-24T07:47:04;2.50;;;2.30;;
37931;SDS011;23758;42.640;23.302;2023-04-24T07:49:29;2.60;;;2.40;;
37931;SDS011;23758;42.640;23.302;2023-04-24T07:51:55;5.88;;;2.45;;
37931;SDS011;23758;42.640;23.302;2023-04-24T07:54:20;2.17;;;2.08;;
37931;SDS011;23758;42.640;23.302;2023-04-24T07:56:46;2.10;;;2.00;;
37931;SDS011;23758;42.640;23.302;2023-04-24T07:59:11;2.17;;;2.08;;
37931;SDS011;23758;42.640;23.302;2023-04-24T08:01:37;2.75;;;2.55;;
37931;SDS011;23758;42.640;23.302;2023-04-24T08:04:03;2.40;;;2.28;;
37931;SDS011;23758;42.640;23.302;2023-04-24T08:06:28;2.60;;;2.40;;
37931;SDS011;23758;42.640;23.302;2023-04-24T08:08:58;2.20;;;2.10;;
37931;SDS011;23758;42.640;23.302;2023-04-24T08:11:24;2.22;;;2.13;;
37931;SDS011;23758;42.640;23.302;2023-04-24T08:13:50;3.15;;;2.72;;
37931;SDS011;23758;42.640;23.302;2023-04-24T08:16:16;2.22;;;2.13;;
37931;SDS011;23758;42.640;23.302;2023-04-24T08:18:41;2.28;;;2.17;;
37931;SDS011;23758;42.640;23.302;2023-04-24T08:21:07;2.67;;;2.47;;
37931;SDS011;23758;42.640;23.302;2023-04-24T08:23:32;2.60;;;2.40;;
37931;SDS011;23758;42.640;23.302;2023-04-24T08:25:58;2.28;;;2.17;;
37931;SDS011;23758;42.640;23.302;2023-04-24T08:28:23;2.38;;;2.28;;
37931;SDS011;23758;42.640;23.302;2023-04-24T08:30:49;2.60;;;2.40;;
37931;SDS011;23758;42.640;23.302;2023-04-24T08:33:20;2.30;;;2.20;;
37931;SDS011;23758;42.640;23.302;2023-04-24T08:35:46;2.47;;;2.35;;
37931;SDS011;23758;42.640;23.302;2023-04-24T08:38:12;2.80;;;2.60;;
37931;SDS011;23758;42.640;23.302;2023-04-24T08:40:38;2.45;;;2.35;;
37931;SDS011;23758;42.640;23.302;2023-04-24T08:43:04;3.33;;;2.50;;
37931;SDS011;23758;42.640;23.302;2023-04-24T08:45:30;2.78;;;2.58;;
37931;SDS011;23758;42.640;23.302;2023-04-24T08:47:55;2.45;;;2.33;;
37931;SDS011;23758;42.640;23.302;2023-04-24T08:50:22;3.22;;;2.90;;
37931;SDS011;23758;42.640;23.302;2023-04-24T08:52:52;2.72;;;2.53;;
37931;SDS011;23758;42.640;23.302;2023-04-24T08:55:19;2.67;;;2.47;;
37931;SDS011;23758;42.640;23.302;2023-04-24T08:57:46;2.88;;;2.67;;
37931;SDS011;23758;42.640;23.302;2023-04-24T09:00:15;3.10;;;2.90;;
37931;SDS011;23758;42.640;23.302;2023-04-24T09:02:42;2.90;;;2.70;;
37931;SDS011;23758;42.640;23.302;2023-04-24T09:05:08;3.25;;;3.05;;
37931;SDS011;23758;42.640;23.302;2023-04-24T09:07:35;2.85;;;2.65;;
37931;SDS011;23758;42.640;23.302;2023-04-24T09:10:03;2.83;;;2.63;;
37931;SDS011;23758;42.640;23.302;2023-04-24T09:12:29;2.90;;;2.70;;
37931;SDS011;23758;42.640;23.302;2023-04-24T09:14:55;2.65;;;2.47;;
37931;SDS011;23758;42.640;23.302;2023-04-24T09:17:21;2.75;;;2.33;;
37931;SDS011;23758;42.640;23.302;2023-04-24T09:19:48;2.30;;;2.20;;
37931;SDS011;23758;42.640;23.302;2023-04-24T09:22:13;2.30;;;2.20;;
37931;SDS011;23758;42.640;23.302;2023-04-24T09:24:40;2.38;;;2.22;;
37931;SDS011;23758;42.640;23.302;2023-04-24T09:27:05;2.25;;;2.15;;
37931;SDS011;23758;42.640;23.302;2023-04-24T09:29:32;2.00;;;1.90;;
37931;SDS011;23758;42.640;23.302;2023-04-24T09:31:58;2.22;;;2.13;;
37931;SDS011;23758;42.640;23.302;2023-04-24T09:34:24;2.22;;;2.03;;
37931;SDS011;23758;42.640;23.302;2023-04-24T09:36:51;2.55;;;2.35;;
37931;SDS011;23758;42.640;23.302;2023-04-24T09:39:17;2.00;;;1.90;;
37931;SDS011;23758;42.640;23.302;2023-04-24T09:41:49;1.90;;;1.80;;
37931;SDS011;23758;42.640;23.302;2023-04-24T09:44:16;1.80;;;1.70;;
37931;SDS011;23758;42.640;23.302;2023-04-24T09:46:49;1.90;;;1.80;;
37931;SDS011;23758;42.640;23.302;2023-04-24T09:49:29;2.30;;;2.10;;
37931;SDS011;23758;42.640;23.302;2023-04-24T09:54:30;1.88;;;1.77;;
37931;SDS011;23758;42.640;23.302;2023-04-24T09:56:56;1.80;;;1.70;;
37931;SDS011;23758;42.640;23.302;2023-04-24T09:59:22;2.03;;;1.80;;
37931;SDS011;23758;42.640;23.302;2023-04-24T10:01:47;1.70;;;1.60;;
37931;SDS011;23758;42.640;23.302;2023-04-24T10:04:18;1.90;;;1.80;;
37931;SDS011;23758;42.640;23.302;2023-04-24T10:06:44;2.00;;;1.90;;
37931;SDS011;23758;42.640;23.302;2023-04-24T10:09:11;2.33;;;2.13;;
37931;SDS011;23758;42.640;23.302;2023-04-24T10:11:37;1.88;;;1.77;;
37931;SDS011;23758;42.640;23.302;2023-04-24T10:14:07;2.80;;;1.92;;
37931;SDS011;23758;42.640;23.302;2023-04-24T10:16:36;1.90;;;1.80;;
37931;SDS011;23758;42.640;23.302;2023-04-24T10:19:02;1.95;;;1.85;;
37931;SDS011;23758;42.640;23.302;2023-04-24T10:21:28;2.10;;;2.00;;
37931;SDS011;23758;42.640;23.302;2023-04-24T10:23:53;1.90;;;1.80;;
37931;SDS011;23758;42.640;23.302;2023-04-24T10:26:19;3.10;;;1.88;;
37931;SDS011;23758;42.640;23.302;2023-04-24T10:28:45;2.10;;;2.00;;
37931;SDS011;23758;42.640;23.302;2023-04-24T10:31:12;2.17;;;2.05;;
37931;SDS011;23758;42.640;23.302;2023-04-24T10:33:38;1.92;;;1.83;;
37931;SDS011;23758;42.640;23.302;2023-04-24T10:36:06;1.92;;;1.83;;
37931;SDS011;23758;42.640;23.302;2023-04-24T10:38:33;2.00;;;1.90;;
37931;SDS011;23758;42.640;23.302;2023-04-24T10:41:12;1.95;;;1.85;;
37931;SDS011;23758;42.640;23.302;2023-04-24T10:43:44;1.80;;;1.70;;
37931;SDS011;23758;42.640;23.302;2023-04-24T10:46:10;1.73;;;1.63;;
37931;SDS011;23758;42.640;23.302;2023-04-24T10:48:43;1.90;;;1.80;;
37931;SDS011;23758;42.640;23.302;2023-04-24T10:51:12;2.00;;;1.90;;
37931;SDS011;23758;42.640;23.302;2023-04-24T10:53:40;1.83;;;1.73;;
37931;SDS011;23758;42.640;23.302;2023-04-24T10:56:06;2.00;;;1.90;;
37931;SDS011;23758;42.640;23.302;2023-04-24T11:01:08;1.98;;;1.70;;
37931;SDS011;23758;42.640;23.302;2023-04-24T11:03:34;1.60;;;1.50;;
37931;SDS011;23758;42.640;23.302;2023-04-24T11:06:04;1.70;;;1.60;;
37931;SDS011;23758;42.640;23.302;2023-04-24T11:11:03;2.75;;;2.08;;
37931;SDS011;23758;42.640;23.302;2023-04-24T11:18:52;1.65;;;1.55;;
37931;SDS011;23758;42.640;23.302;2023-04-24T11:21:25;1.80;;;1.70;;
37931;SDS011;23758;42.640;23.302;2023-04-24T11:23:51;1.90;;;1.80;;
37931;SDS011;23758;42.640;23.302;2023-04-24T11:26:18;2.17;;;1.83;;
37931;SDS011;23758;42.640;23.302;2023-04-24T11:28:47;2.00;;;1.90;;
37931;SDS011;23758;42.640;23.302;2023-04-24T11:34:06;2.00;;;1.90;;
37931;SDS011;23758;42.640;23.302;2023-04-24T11:36:32;2.00;;;1.90;;
37931;SDS011;23758;42.640;23.302;2023-04-24T11:38:59;2.20;;;2.10;;
37931;SDS011;23758;42.640;23.302;2023-04-24T11:41:24;2.60;;;2.40;;
37931;SDS011;23758;42.640;23.302;2023-04-24T11:43:51;2.20;;;2.10;;
37931;SDS011;23758;42.640;23.302;2023-04-24T11:46:18;2.30;;;2.20;;
37931;SDS011;23758;42.640;23.302;2023-04-24T11:48:46;2.10;;;2.00;;
37931;SDS011;23758;42.640;23.302;2023-04-24T11:51:12;2.30;;;2.10;;
37931;SDS011;23758;42.640;23.302;2023-04-24T11:53:38;2.10;;;2.00;;
37931;SDS011;23758;42.640;23.302;2023-04-24T11:56:04;2.10;;;2.00;;
37931;SDS011;23758;42.640;23.302;2023-04-24T11:58:34;2.47;;;2.28;;
37931;SDS011;23758;42.640;23.302;2023-04-24T12:01:00;2.13;;;2.03;;
37931;SDS011;23758;42.640;23.302;2023-04-24T12:03:26;2.20;;;2.10;;
37931;SDS011;23758;42.640;23.302;2023-04-24T12:05:52;2.30;;;2.20;;
37931;SDS011;23758;42.640;23.302;2023-04-24T12:08:27;2.28;;;2.17;;
37931;SDS011;23758;42.640;23.302;2023-04-24T12:10:53;2.13;;;2.03;;
37931;SDS011;23758;42.640;23.302;2023-04-24T12:13:19;2.00;;;1.90;;
37931;SDS011;23758;42.640;23.302;2023-04-24T12:15:44;2.10;;;2.00;;
37931;SDS011;23758;42.640;23.302;2023-04-24T12:18:11;2.83;;;2.63;;
37931;SDS011;23758;42.640;23.302;2023-04-24T12:20:38;2.22;;;2.13;;
37931;SDS011;23758;42.640;23.302;2023-04-24T12:23:05;2.20;;;2.10;;
37931;SDS011;23758;42.640;23.302;2023-04-24T12:25:31;2.30;;;2.20;;
37931;SDS011;23758;42.640;23.302;2023-04-24T12:30:29;2.30;;;2.20;;
37931;SDS011;23758;42.640;23.302;2023-04-24T12:32:57;2.05;;;1.95;;
37931;SDS011;23758;42.640;23.302;2023-04-24T12:35:24;2.10;;;2.00;;
37931;SDS011;23758;42.640;23.302;2023-04-24T12:37:51;2.30;;;2.20;;
37931;SDS011;23758;42.640;23.302;2023-04-24T12:40:17;2.30;;;2.20;;
37931;SDS011;23758;42.640;23.302;2023-04-24T12:42:44;2.05;;;1.95;;
37931;SDS011;23758;42.640;23.302;2023-04-24T12:45:11;1.90;;;1.80;;
37931;SDS011;23758;42.640;23.302;2023-04-24T12:47:38;2.00;;;1.90;;
37931;SDS011;23758;42.640;23.302;2023-04-24T12:50:05;1.75;;;1.65;;
37931;SDS011;23758;42.640;23.302;2023-04-24T12:52:32;1.60;;;1.50;;
37931;SDS011;23758;42.640;23.302;2023-04-24T12:54:59;1.98;;;1.88;;
37931;SDS011;23758;42.640;23.302;2023-04-24T12:57:25;1.60;;;1.50;;
37931;SDS011;23758;42.640;23.302;2023-04-24T12:59:55;1.80;;;1.70;;
37931;SDS011;23758;42.640;23.302;2023-04-24T13:02:21;1.70;;;1.60;;
37931;SDS011;23758;42.640;23.302;2023-04-24T13:04:47;1.70;;;1.60;;
37931;SDS011;23758;42.640;23.302;2023-04-24T13:07:13;1.70;;;1.60;;
37931;SDS011;23758;42.640;23.302;2023-04-24T13:09:40;1.70;;;1.60;;
37931;SDS011;23758;42.640;23.302;2023-04-24T13:12:06;1.83;;;1.73;;
37931;SDS011;23758;42.640;23.302;2023-04-24T13:14:32;1.92;;;1.83;;
37931;SDS011;23758;42.640;23.302;2023-04-24T13:16:58;1.70;;;1.60;;
37931;SDS011;23758;42.640;23.302;2023-04-24T13:19:24;1.80;;;1.70;;
37931;SDS011;23758;42.640;23.302;2023-04-24T13:21:51;1.80;;;1.70;;
37931;SDS011;23758;42.640;23.302;2023-04-24T13:24:17;1.80;;;1.70;;
37931;SDS011;23758;42.640;23.302;2023-04-24T13:26:42;2.00;;;1.90;;
37931;SDS011;23758;42.640;23.302;2023-04-24T13:29:08;1.90;;;1.80;;
37931;SDS011;23758;42.640;23.302;2023-04-24T13:31:34;1.90;;;1.80;;
37931;SDS011;23758;42.640;23.302;2023-04-24T13:33:59;2.00;;;1.90;;
37931;SDS011;23758;42.640;23.302;2023-04-24T13:36:25;2.00;;;1.90;;
37931;SDS011;23758;42.640;23.302;2023-04-24T13:38:51;2.05;;;1.95;;
37931;SDS011;23758;42.640;23.302;2023-04-24T13:41:16;1.90;;;1.80;;
37931;SDS011;23758;42.640;23.302;2023-04-24T13:43:41;1.90;;;1.80;;
37931;SDS011;23758;42.640;23.302;2023-04-24T13:46:08;2.03;;;1.92;;
37931;SDS011;23758;42.640;23.302;2023-04-24T13:48:34;2.22;;;2.13;;
37931;SDS011;23758;42.640;23.302;2023-04-24T13:50:59;2.10;;;2.00;;
37931;SDS011;23758;42.640;23.302;2023-04-24T13:53:25;2.10;;;2.00;;
37931;SDS011;23758;42.640;23.302;2023-04-24T13:55:50;2.30;;;2.20;;
37931;SDS011;23758;42.640;23.302;2023-04-24T13:58:16;8.00;;;2.38;;
37931;SDS011;23758;42.640;23.302;2023-04-24T14:00:41;4.60;;;2.17;;
37931;SDS011;23758;42.640;23.302;2023-04-24T14:03:07;2.13;;;2.03;;
37931;SDS011;23758;42.640;23.302;2023-04-24T14:05:32;2.08;;;1.92;;
37931;SDS011;23758;42.640;23.302;2023-04-24T14:07:57;2.03;;;1.92;;
37931;SDS011;23758;42.640;23.302;2023-04-24T14:10:23;2.10;;;2.00;;
37931;SDS011;23758;42.640;23.302;2023-04-24T14:12:49;2.00;;;1.90;;
37931;SDS011;23758;42.640;23.302;2023-04-24T14:15:14;2.20;;;2.10;;
37931;SDS011;23758;42.640;23.302;2023-04-24T14:17:40;1.90;;;1.80;;
37931;SDS011;23758;42.640;23.302;2023-04-24T14:20:06;2.10;;;2.00;;
37931;SDS011;23758;42.640;23.302;2023-04-24T14:22:32;2.13;;;2.03;;
37931;SDS011;23758;42.640;23.302;2023-04-24T14:24:57;2.40;;;2.20;;
37931;SDS011;23758;42.640;23.302;2023-04-24T14:27:24;2.00;;;1.90;;
37931;SDS011;23758;42.640;23.302;2023-04-24T14:29:50;2.10;;;2.00;;
37931;SDS011;23758;42.640;23.302;2023-04-24T14:32:15;2.20;;;2.10;;
37931;SDS011;23758;42.640;23.302;2023-04-24T14:34:41;1.90;;;1.80;;
37931;SDS011;23758;42.640;23.302;2023-04-24T14:37:07;2.40;;;2.30;;
37931;SDS011;23758;42.640;23.302;2023-04-24T14:39:32;2.33;;;2.22;;
37931;SDS011;23758;42.640;23.302;2023-04-24T14:41:58;2.17;;;2.08;;
37931;SDS011;23758;42.640;23.302;2023-04-24T14:44:23;2.10;;;2.00;;
37931;SDS011;23758;42.640;23.302;2023-04-24T14:46:49;2.50;;;2.30;;